createdAt,value
2018-05-08T00:00:32.536Z,4.50
2018-05-08T00:01:32.535Z,4.70
2018-05-08T00:02:32.536Z,5.20
2018-05-08T00:03:32.538Z,4.90
2018-05-08T00:04:32.538Z,5.10
2018-05-08T00:05:32.540Z,4.80
2018-05-08T00:06:32.540Z,5.00
2018-05-08T00:07:32.541Z,5.30
2018-05-08T00:08:32.541Z,5.10
2018-05-08T00:09:32.542Z,5.20
2018-05-08T00:10:32.541Z,4.70
2018-05-08T00:11:32.542Z,5.30
2018-05-08T00:12:32.543Z,5.40
2018-05-08T00:13:32.544Z,5.30
2018-05-08T00:14:32.545Z,5.00
2018-05-08T00:15:32.545Z,5.30
2018-05-08T00:16:32.548Z,4.70
2018-05-08T00:17:32.546Z,5.20
2018-05-08T00:18:32.547Z,5.10
2018-05-08T00:19:32.548Z,5.20
2018-05-08T00:20:32.549Z,5.40
2018-05-08T00:21:32.549Z,5.40
2018-05-08T00:22:32.549Z,5.60
2018-05-08T00:23:32.550Z,5.00
2018-05-08T00:24:32.551Z,5.20
2018-05-08T00:26:32.555Z,5.40
2018-05-08T00:27:32.553Z,5.90
2018-05-08T00:28:32.556Z,5.00
2018-05-08T00:29:32.554Z,5.00
2018-05-08T00:30:32.554Z,5.10
2018-05-08T00:31:32.554Z,5.30
2018-05-08T00:32:32.556Z,4.70
2018-05-08T00:33:32.553Z,5.00
2018-05-08T00:34:32.556Z,4.90
2018-05-08T00:35:32.556Z,4.70
2018-05-08T00:36:32.556Z,5.40
2018-05-08T00:37:32.557Z,4.80
2018-05-08T00:38:32.556Z,5.00
2018-05-08T00:39:32.561Z,5.00
2018-05-08T00:40:32.557Z,5.10
2018-05-08T00:41:32.559Z,4.70
2018-05-08T00:42:32.559Z,5.10
2018-05-08T00:43:32.559Z,4.90
2018-05-08T00:44:32.560Z,5.60
2018-05-08T00:45:32.560Z,4.60
2018-05-08T00:46:32.562Z,4.70
2018-05-08T00:47:32.559Z,5.20
2018-05-08T00:48:32.568Z,4.20
2018-05-08T00:49:32.562Z,4.70
2018-05-08T00:50:32.562Z,4.70
2018-05-08T00:51:32.562Z,4.50
2018-05-08T00:52:32.562Z,6.00
2018-05-08T00:53:32.560Z,5.30
2018-05-08T00:54:32.562Z,5.10
2018-05-08T00:55:32.562Z,4.90
2018-05-08T00:56:32.564Z,4.80
2018-05-08T00:57:32.565Z,5.30
2018-05-08T00:58:32.563Z,5.20
2018-05-08T00:59:32.564Z,4.90
2018-05-08T01:00:32.565Z,4.50
2018-05-08T01:01:32.565Z,5.90
2018-05-08T01:02:32.566Z,5.10
2018-05-08T01:03:32.565Z,5.30
2018-05-08T01:04:32.566Z,5.40
2018-05-08T01:05:32.565Z,5.50
2018-05-08T01:06:32.866Z,4.70
2018-05-08T01:07:32.566Z,4.50
2018-05-08T01:08:32.569Z,5.10
2018-05-08T01:09:32.567Z,5.10
2018-05-08T01:10:32.567Z,5.40
2018-05-08T01:11:32.602Z,4.90
2018-05-08T01:12:32.569Z,5.20
2018-05-08T01:13:32.568Z,6.20
2018-05-08T01:14:32.570Z,4.50
2018-05-08T01:15:32.570Z,5.90
2018-05-08T01:16:32.571Z,5.30
2018-05-08T01:17:32.570Z,5.60
2018-05-08T01:18:32.570Z,4.80
2018-05-08T01:19:32.571Z,5.50
2018-05-08T01:20:32.571Z,5.30
2018-05-08T01:21:32.574Z,5.20
2018-05-08T01:22:32.571Z,5.20
2018-05-08T01:23:32.570Z,5.50
2018-05-08T01:24:32.571Z,5.50
2018-05-08T01:25:32.570Z,5.30
2018-05-08T01:26:32.571Z,5.00
2018-05-08T01:27:32.573Z,5.20
2018-05-08T01:28:32.571Z,5.40
2018-05-08T01:29:32.572Z,5.10
2018-05-08T01:30:32.572Z,5.40
2018-05-08T01:31:32.578Z,5.70
2018-05-08T01:32:32.572Z,5.10
2018-05-08T01:33:32.571Z,5.00
2018-05-08T01:34:32.572Z,5.20
2018-05-08T01:35:32.573Z,4.50
2018-05-08T01:36:32.573Z,5.20
2018-05-08T01:37:32.571Z,4.90
2018-05-08T01:38:32.571Z,5.70
2018-05-08T01:39:32.571Z,5.20
2018-05-08T01:40:32.571Z,5.30
2018-05-08T01:41:32.572Z,5.10
2018-05-08T01:42:32.572Z,4.80
2018-05-08T01:43:32.570Z,4.80
2018-05-08T01:44:32.571Z,5.60
2018-05-08T01:45:32.572Z,5.60
2018-05-08T01:46:32.572Z,4.80
2018-05-08T01:47:32.571Z,5.10
2018-05-08T01:48:32.572Z,5.50
2018-05-08T01:49:32.571Z,5.70
2018-05-08T01:50:32.646Z,6.20
2018-05-08T01:51:32.576Z,5.30
2018-05-08T01:52:32.572Z,5.20
2018-05-08T01:53:32.572Z,5.00
2018-05-08T01:54:32.571Z,5.80
2018-05-08T01:55:32.572Z,5.80
2018-05-08T01:56:32.574Z,5.50
2018-05-08T01:57:32.571Z,5.10
2018-05-08T01:58:32.570Z,5.40
2018-05-08T01:59:32.571Z,5.30
2018-05-08T02:00:32.570Z,6.00
2018-05-08T02:01:32.629Z,4.90
2018-05-08T02:02:32.571Z,5.20
2018-05-08T02:03:32.570Z,5.40
2018-05-08T02:04:32.570Z,5.40
2018-05-08T02:05:32.571Z,5.50
2018-05-08T02:06:32.570Z,4.30
2018-05-08T02:07:32.570Z,4.70
2018-05-08T02:08:32.576Z,5.20
2018-05-08T02:09:32.569Z,4.70
2018-05-08T02:10:32.571Z,5.10
2018-05-08T02:11:32.570Z,4.10
2018-05-08T02:12:32.569Z,4.90
2018-05-08T02:13:32.569Z,5.40
2018-05-08T02:14:32.570Z,5.20
2018-05-08T02:15:32.569Z,5.50
2018-05-08T02:16:32.569Z,6.50
2018-05-08T02:17:32.569Z,6.70
2018-05-08T02:18:32.569Z,6.20
2018-05-08T02:19:32.570Z,5.90
2018-05-08T02:20:32.569Z,5.50
2018-05-08T02:21:32.567Z,6.10
2018-05-08T02:22:32.567Z,6.80
2018-05-08T02:23:32.580Z,6.70
2018-05-08T02:24:32.568Z,7.00
2018-05-08T02:25:32.567Z,6.80
2018-05-08T02:26:32.568Z,6.60
2018-05-08T02:27:32.567Z,7.00
2018-05-08T02:28:32.567Z,7.40
2018-05-08T02:29:32.566Z,5.60
2018-05-08T02:30:32.565Z,6.20
2018-05-08T02:31:32.567Z,6.30
2018-05-08T02:32:32.564Z,5.80
2018-05-08T02:33:32.570Z,5.10
2018-05-08T02:34:32.568Z,5.40
2018-05-08T02:35:32.565Z,5.80
2018-05-08T02:36:32.565Z,5.90
2018-05-08T02:37:32.571Z,6.00
2018-05-08T02:38:32.576Z,5.70
2018-05-08T02:39:32.564Z,5.70
2018-05-08T02:40:32.568Z,5.90
2018-05-08T02:41:32.563Z,6.20
2018-05-08T02:42:32.562Z,6.30
2018-05-08T02:43:32.562Z,5.20
2018-05-08T02:44:32.562Z,5.80
2018-05-08T02:45:32.561Z,6.10
2018-05-08T02:46:32.561Z,6.00
2018-05-08T02:47:32.561Z,5.30
2018-05-08T02:48:32.567Z,5.60
2018-05-08T02:49:32.557Z,6.30
2018-05-08T02:50:32.558Z,6.00
2018-05-08T02:51:32.563Z,6.30
2018-05-08T02:52:32.577Z,5.80
2018-05-08T02:53:32.557Z,5.90
2018-05-08T02:54:32.555Z,5.80
2018-05-08T02:55:32.560Z,6.00
2018-05-08T02:56:32.555Z,5.40
2018-05-08T02:57:32.555Z,5.50
2018-05-08T02:58:32.554Z,5.50
2018-05-08T02:59:32.555Z,5.50
2018-05-08T03:00:32.555Z,6.00
2018-05-08T03:01:32.553Z,5.20
2018-05-08T03:02:32.553Z,6.10
2018-05-08T03:03:32.553Z,5.70
2018-05-08T03:04:32.553Z,5.60
2018-05-08T03:05:32.551Z,5.60
2018-05-08T03:06:32.553Z,5.70
2018-05-08T03:07:32.550Z,6.30
2018-05-08T03:08:32.550Z,6.00
2018-05-08T03:09:32.549Z,7.10
2018-05-08T03:10:32.549Z,5.80
2018-05-08T03:11:32.548Z,6.20
2018-05-08T03:12:32.549Z,5.40
2018-05-08T03:13:32.546Z,6.90
2018-05-08T03:14:32.545Z,7.00
2018-05-08T03:15:32.545Z,6.10
2018-05-08T03:16:32.546Z,6.60
2018-05-08T03:17:32.543Z,6.30
2018-05-08T03:18:32.544Z,6.30
2018-05-08T03:19:32.543Z,6.00
2018-05-08T03:20:32.543Z,6.20
2018-05-08T03:21:32.542Z,5.50
2018-05-08T03:22:32.541Z,6.50
2018-05-08T03:23:32.540Z,6.10
2018-05-08T03:24:32.541Z,6.00
2018-05-08T03:25:32.540Z,5.50
2018-05-08T03:26:32.538Z,5.80
2018-05-08T03:27:32.538Z,6.10
2018-05-08T03:28:32.540Z,6.10
2018-05-08T03:29:32.536Z,6.50
2018-05-08T03:30:32.536Z,5.40
2018-05-08T03:31:32.536Z,6.00
2018-05-08T03:32:32.536Z,6.20
2018-05-08T03:33:32.534Z,6.10
2018-05-08T03:34:32.535Z,6.10
2018-05-08T03:35:32.532Z,5.70
2018-05-08T03:36:32.532Z,6.10
2018-05-08T03:37:32.531Z,5.60
2018-05-08T03:38:32.531Z,5.90
2018-05-08T03:39:32.530Z,6.10
2018-05-08T03:40:32.529Z,5.70
2018-05-08T03:41:32.536Z,5.60
2018-05-08T03:42:32.527Z,5.30
2018-05-08T03:43:32.526Z,5.90
2018-05-08T03:44:32.526Z,5.70
2018-05-08T03:45:32.525Z,6.30
2018-05-08T03:46:32.526Z,6.20
2018-05-08T03:47:32.524Z,5.70
2018-05-08T03:48:32.528Z,5.90
2018-05-08T03:49:32.523Z,5.80
2018-05-08T03:50:32.521Z,6.70
2018-05-08T03:51:32.520Z,5.80
2018-05-08T03:52:32.524Z,6.40
2018-05-08T03:53:32.519Z,6.30
2018-05-08T03:54:32.518Z,6.10
2018-05-08T03:55:32.518Z,5.90
2018-05-08T03:56:32.518Z,6.60
2018-05-08T03:57:32.517Z,5.90
2018-05-08T03:58:32.516Z,5.60
2018-05-08T03:59:32.514Z,6.10
2018-05-08T04:00:32.513Z,5.40
2018-05-08T04:01:32.512Z,5.60
2018-05-08T04:02:32.512Z,6.10
2018-05-08T04:03:32.511Z,5.80
2018-05-08T04:04:32.517Z,5.70
2018-05-08T04:05:32.510Z,6.50
2018-05-08T04:06:32.508Z,6.00
2018-05-08T04:07:32.507Z,5.50
2018-05-08T04:08:32.508Z,6.00
2018-05-08T04:09:32.506Z,6.30
2018-05-08T04:10:32.505Z,5.80
2018-05-08T04:11:32.506Z,5.70
2018-05-08T04:12:32.503Z,6.30
2018-05-08T04:13:32.502Z,6.20
2018-05-08T04:14:32.500Z,6.10
2018-05-08T04:15:32.571Z,5.80
2018-05-08T04:16:32.500Z,6.60
2018-05-08T04:17:32.499Z,5.60
2018-05-08T04:18:32.499Z,5.20
2018-05-08T04:19:32.497Z,6.40
2018-05-08T04:20:32.497Z,5.50
2018-05-08T04:21:32.499Z,5.80
2018-05-08T04:22:32.497Z,5.70
2018-05-08T04:23:32.495Z,5.60
2018-05-08T04:24:32.494Z,6.80
2018-05-08T04:25:32.492Z,5.70
2018-05-08T04:26:32.492Z,5.80
2018-05-08T04:27:32.491Z,6.40
2018-05-08T04:28:32.489Z,5.80
2018-05-08T04:29:32.488Z,6.80
2018-05-08T04:30:32.487Z,6.60
2018-05-08T04:31:32.488Z,6.60
2018-05-08T04:32:32.485Z,6.10
2018-05-08T04:33:32.484Z,5.90
2018-05-08T04:34:32.484Z,6.70
2018-05-08T04:35:32.483Z,6.60
2018-05-08T04:36:32.500Z,5.70
2018-05-08T04:37:32.481Z,6.20
2018-05-08T04:38:32.480Z,6.20
2018-05-08T04:39:32.484Z,6.30
2018-05-08T04:40:32.479Z,6.20
2018-05-08T04:41:32.478Z,6.10
2018-05-08T04:42:32.476Z,6.10
2018-05-08T04:43:32.477Z,6.20
2018-05-08T04:44:32.475Z,6.80
2018-05-08T04:45:32.475Z,6.80
2018-05-08T04:46:32.473Z,5.40
2018-05-08T04:47:32.476Z,5.90
2018-05-08T04:48:32.472Z,6.10
2018-05-08T04:49:32.472Z,6.30
2018-05-08T04:50:32.471Z,6.00
2018-05-08T04:51:32.471Z,5.90
2018-05-08T04:52:32.471Z,5.50
2018-05-08T04:53:32.469Z,6.90
2018-05-08T04:54:32.478Z,6.50
2018-05-08T04:55:32.467Z,6.50
2018-05-08T04:56:32.467Z,6.50
2018-05-08T04:57:32.465Z,6.90
2018-05-08T04:58:32.464Z,6.90
2018-05-08T04:59:32.465Z,7.40
2018-05-08T05:00:32.464Z,6.50
2018-05-08T05:01:32.462Z,7.20
2018-05-08T05:02:32.463Z,6.70
2018-05-08T05:03:32.462Z,6.80
2018-05-08T05:04:32.461Z,6.90
2018-05-08T05:05:32.461Z,6.40
2018-05-08T05:06:32.459Z,7.00
2018-05-08T05:07:32.459Z,6.80
2018-05-08T05:08:32.460Z,6.90
2018-05-08T05:09:32.459Z,7.20
2018-05-08T05:10:32.457Z,7.10
2018-05-08T05:11:32.457Z,7.20
2018-05-08T05:12:32.457Z,6.80
2018-05-08T05:13:32.455Z,7.30
2018-05-08T05:14:32.456Z,7.30
2018-05-08T05:15:32.455Z,8.60
2018-05-08T05:16:32.455Z,8.60
2018-05-08T05:17:32.453Z,7.10
2018-05-08T05:18:32.455Z,7.10
2018-05-08T05:19:32.454Z,6.90
2018-05-08T05:20:32.454Z,7.30
2018-05-08T05:21:32.453Z,7.30
2018-05-08T05:22:32.454Z,6.60
2018-05-08T05:23:32.453Z,6.50
2018-05-08T05:24:32.467Z,6.40
2018-05-08T05:25:32.459Z,6.90
2018-05-08T05:26:32.452Z,6.90
2018-05-08T05:27:32.453Z,5.90
2018-05-08T05:28:32.453Z,6.70
2018-05-08T05:29:32.459Z,6.60
2018-05-08T05:30:32.451Z,6.20
2018-05-08T05:31:32.466Z,6.30
2018-05-08T05:32:32.452Z,6.10
2018-05-08T05:33:32.451Z,6.80
2018-05-08T05:34:32.451Z,6.80
2018-05-08T05:35:32.452Z,7.20
2018-05-08T05:36:32.452Z,6.80
2018-05-08T05:37:32.454Z,6.90
2018-05-08T05:38:32.451Z,6.80
2018-05-08T05:39:32.451Z,7.50
2018-05-08T05:40:32.452Z,6.90
2018-05-08T05:41:32.451Z,7.40
2018-05-08T05:42:32.455Z,8.40
2018-05-08T05:43:32.452Z,8.10
2018-05-08T05:44:32.452Z,7.70
2018-05-08T05:45:32.454Z,8.20
2018-05-08T05:46:32.451Z,7.60
2018-05-08T05:47:32.453Z,7.30
2018-05-08T05:48:32.453Z,7.10
2018-05-08T05:49:32.452Z,7.70
2018-05-08T05:50:32.453Z,6.60
2018-05-08T05:51:32.460Z,6.30
2018-05-08T05:52:32.452Z,6.20
2018-05-08T05:53:32.453Z,5.90
2018-05-08T05:54:32.451Z,6.20
2018-05-08T05:55:32.454Z,6.40
2018-05-08T05:56:32.455Z,5.70
2018-05-08T05:57:32.453Z,6.50
2018-05-08T05:58:32.506Z,6.50
2018-05-08T05:59:32.482Z,6.30
2018-05-08T06:00:32.502Z,6.10
2018-05-08T06:01:32.542Z,6.30
2018-05-08T06:02:32.455Z,7.40
2018-05-08T06:03:32.455Z,9.40
2018-05-08T06:04:32.461Z,7.40
2018-05-08T06:05:32.454Z,7.60
2018-05-08T06:06:32.550Z,8.20
2018-05-08T06:07:32.455Z,6.60
2018-05-08T06:08:32.456Z,6.20
2018-05-08T06:09:32.454Z,6.40
2018-05-08T06:10:32.456Z,6.00
2018-05-08T06:11:32.477Z,6.80
2018-05-08T06:12:32.458Z,7.10
2018-05-08T06:13:32.456Z,6.10
2018-05-08T06:14:32.457Z,6.90
2018-05-08T06:15:32.457Z,6.80
2018-05-08T06:16:32.458Z,7.10
2018-05-08T06:17:32.462Z,6.80
2018-05-08T06:18:32.458Z,6.90
2018-05-08T06:19:32.460Z,7.10
2018-05-08T06:20:32.459Z,7.40
2018-05-08T06:21:32.460Z,6.50
2018-05-08T06:22:32.461Z,7.10
2018-05-08T06:23:32.462Z,6.80
2018-05-08T06:24:32.462Z,6.70
2018-05-08T06:25:32.462Z,7.20
2018-05-08T06:26:32.472Z,6.40
2018-05-08T06:27:32.468Z,6.60
2018-05-08T06:28:32.762Z,7.30
2018-05-08T06:29:32.466Z,7.50
2018-05-08T06:30:32.840Z,6.80
2018-05-08T06:31:32.468Z,6.90
2018-05-08T06:32:32.469Z,6.80
2018-05-08T06:33:32.469Z,7.00
2018-05-08T06:34:32.471Z,7.10
2018-05-08T06:35:32.470Z,7.40
2018-05-08T06:36:32.473Z,7.20
2018-05-08T06:37:32.472Z,7.70
2018-05-08T06:38:32.475Z,7.20
2018-05-08T06:39:32.550Z,6.90
2018-05-08T06:40:32.476Z,6.40
2018-05-08T06:41:32.480Z,6.80
2018-05-08T06:42:32.477Z,6.60
2018-05-08T06:43:32.478Z,7.10
2018-05-08T06:44:32.481Z,7.20
2018-05-08T06:45:32.605Z,8.00
2018-05-08T06:46:32.498Z,7.00
2018-05-08T06:47:32.486Z,7.40
2018-05-08T06:48:32.485Z,5.40
2018-05-08T06:49:32.754Z,6.50
2018-05-08T06:50:32.602Z,6.00
2018-05-08T06:51:32.488Z,6.60
2018-05-08T06:52:32.491Z,6.50
2018-05-08T06:53:32.491Z,5.90
2018-05-08T06:54:32.493Z,6.20
2018-05-08T06:55:32.495Z,6.70
2018-05-08T06:56:32.495Z,6.90
2018-05-08T06:57:32.500Z,5.80
2018-05-08T06:58:32.499Z,6.90
2018-05-08T06:59:32.502Z,6.30
2018-05-08T07:00:32.506Z,6.60
2018-05-08T07:01:32.505Z,6.50
2018-05-08T07:02:32.507Z,6.00
2018-05-08T07:03:32.513Z,7.20
2018-05-08T07:04:32.517Z,6.50
2018-05-08T07:05:32.552Z,6.20
2018-05-08T07:06:32.617Z,6.30
2018-05-08T07:07:32.534Z,6.30
2018-05-08T07:08:32.540Z,6.00
2018-05-08T07:09:32.549Z,6.20
2018-05-08T07:10:32.606Z,5.40
2018-05-08T07:11:32.564Z,5.50
2018-05-08T07:12:32.569Z,5.60
2018-05-08T07:13:32.578Z,5.70
2018-05-08T07:14:32.585Z,5.80
2018-05-08T07:15:32.593Z,5.80
2018-05-08T07:16:32.602Z,6.10
2018-05-08T07:17:32.607Z,5.40
2018-05-08T07:18:32.617Z,5.90
2018-05-08T07:19:32.621Z,6.20
2018-05-08T07:20:32.629Z,5.30
2018-05-08T07:21:32.634Z,5.70
2018-05-08T07:22:32.641Z,6.00
2018-05-08T07:23:32.647Z,5.20
2018-05-08T07:24:32.653Z,5.60
2018-05-08T07:25:32.660Z,5.60
2018-05-08T07:26:32.665Z,6.20
2018-05-08T07:27:32.857Z,6.50
2018-05-08T07:28:32.749Z,6.70
2018-05-08T07:29:32.684Z,9.90
2018-05-08T07:30:32.690Z,5.80
2018-05-08T07:31:32.699Z,5.70
2018-05-08T07:32:32.703Z,6.10
2018-05-08T07:33:32.708Z,5.70
2018-05-08T07:34:32.714Z,5.90
2018-05-08T07:35:32.882Z,6.80
2018-05-08T07:36:32.734Z,6.30
2018-05-08T07:37:32.733Z,5.70
2018-05-08T07:38:32.743Z,6.00
2018-05-08T07:39:32.747Z,6.70
2018-05-08T07:40:32.754Z,5.40
2018-05-08T07:41:32.914Z,5.90
2018-05-08T07:42:32.764Z,5.40
2018-05-08T07:43:32.769Z,5.70
2018-05-08T07:44:32.776Z,5.30
2018-05-08T07:45:32.928Z,5.50
2018-05-08T07:46:32.788Z,6.20
2018-05-08T07:47:32.793Z,5.60
2018-05-08T07:48:32.993Z,5.30
2018-05-08T07:49:33.263Z,5.80
2018-05-08T07:50:33.053Z,6.30
2018-05-08T07:51:33.071Z,5.20
2018-05-08T07:52:32.824Z,6.90
2018-05-08T07:53:32.831Z,5.80
2018-05-08T07:54:32.920Z,6.00
2018-05-08T07:55:32.846Z,6.10
2018-05-08T07:56:32.853Z,5.90
2018-05-08T07:57:32.949Z,6.00
2018-05-08T07:58:32.870Z,6.50
2018-05-08T07:59:33.294Z,6.30
2018-05-08T08:00:32.888Z,6.40
2018-05-08T08:01:32.894Z,5.50
2018-05-08T08:02:32.904Z,6.00
2018-05-08T08:03:32.916Z,6.50
2018-05-08T08:04:32.998Z,6.60
2018-05-08T08:05:32.936Z,5.90
2018-05-08T08:06:32.948Z,6.00
2018-05-08T08:07:32.964Z,5.90
2018-05-08T08:08:32.972Z,6.40
2018-05-08T08:09:32.985Z,6.10
2018-05-08T08:10:32.996Z,5.90
2018-05-08T08:11:33.019Z,7.10
2018-05-08T08:12:33.021Z,6.30
2018-05-08T08:13:33.032Z,6.00
2018-05-08T08:14:33.046Z,4.80
2018-05-08T08:15:33.359Z,4.90
2018-05-08T08:16:33.151Z,5.40
2018-05-08T08:17:33.091Z,5.10
2018-05-08T08:18:33.115Z,4.80
2018-05-08T08:19:33.476Z,5.30
2018-05-08T08:20:33.122Z,5.20
2018-05-08T08:21:33.133Z,4.60
2018-05-08T08:22:33.143Z,5.10
2018-05-08T08:23:33.166Z,4.50
2018-05-08T08:24:33.172Z,5.10
2018-05-08T08:25:33.178Z,4.50
2018-05-08T08:26:33.190Z,4.40
2018-05-08T08:27:33.203Z,5.20
2018-05-08T08:28:33.214Z,5.30
2018-05-08T08:29:33.225Z,4.30
2018-05-08T08:30:33.238Z,4.70
2018-05-08T08:31:33.251Z,4.00
2018-05-08T08:32:33.264Z,4.80
2018-05-08T08:33:33.564Z,7.80
2018-05-08T08:34:33.290Z,5.70
2018-05-08T08:35:33.306Z,5.50
2018-05-08T08:36:33.318Z,4.20
2018-05-08T08:37:33.331Z,4.70
2018-05-08T08:38:33.346Z,4.60
2018-05-08T08:39:33.361Z,4.90
2018-05-08T08:40:33.375Z,5.30
2018-05-08T08:41:33.389Z,4.60
2018-05-08T08:42:33.405Z,4.90
2018-05-08T08:43:33.425Z,4.50
2018-05-08T08:44:33.435Z,4.70
2018-05-08T08:45:33.450Z,5.00
2018-05-08T08:46:33.521Z,5.10
2018-05-08T08:47:33.486Z,4.50
2018-05-08T08:48:33.496Z,5.70
2018-05-08T08:49:33.513Z,4.60
2018-05-08T08:50:33.528Z,5.30
2018-05-08T08:51:33.543Z,5.30
2018-05-08T08:52:33.559Z,5.20
2018-05-08T08:53:33.574Z,5.50
2018-05-08T08:54:33.590Z,4.70
2018-05-08T08:55:33.609Z,5.20
2018-05-08T08:56:33.624Z,5.30
2018-05-08T08:57:33.638Z,5.30
2018-05-08T08:58:33.654Z,4.70
2018-05-08T08:59:33.670Z,6.20
2018-05-08T09:00:33.685Z,5.20
2018-05-08T09:01:33.698Z,5.30
2018-05-08T09:02:33.715Z,5.20
2018-05-08T09:03:33.729Z,5.50
2018-05-08T09:04:33.746Z,5.90
2018-05-08T09:05:33.768Z,5.60
2018-05-08T09:06:33.775Z,5.30
2018-05-08T09:07:33.791Z,4.90
2018-05-08T09:08:33.807Z,6.00
2018-05-08T09:09:33.821Z,5.60
2018-05-08T09:10:33.836Z,6.20
2018-05-08T09:11:33.879Z,5.30
2018-05-08T09:12:33.866Z,5.40
2018-05-08T09:13:33.892Z,5.10
2018-05-08T09:14:33.896Z,5.60
2018-05-08T09:15:33.910Z,5.00
2018-05-08T09:16:33.926Z,5.50
2018-05-08T09:17:33.939Z,5.00
2018-05-08T09:18:33.955Z,5.50
2018-05-08T09:19:33.971Z,4.80
2018-05-08T09:20:34.255Z,5.20
2018-05-08T09:21:33.998Z,5.40
2018-05-08T09:22:34.462Z,5.80
2018-05-08T09:23:34.303Z,5.70
2018-05-08T09:24:34.550Z,5.30
2018-05-08T09:25:34.065Z,5.00
2018-05-08T09:26:34.071Z,6.50
2018-05-08T09:27:34.098Z,5.90
2018-05-08T09:28:34.101Z,6.70
2018-05-08T09:29:34.113Z,5.90
2018-05-08T09:30:34.309Z,5.40
2018-05-08T09:31:34.145Z,5.50
2018-05-08T09:32:34.159Z,5.50
2018-05-08T09:33:34.170Z,5.40
2018-05-08T09:34:34.183Z,5.80
2018-05-08T09:35:34.274Z,5.70
2018-05-08T09:36:34.214Z,5.10
2018-05-08T09:37:34.227Z,5.10
2018-05-08T09:38:34.240Z,5.40
2018-05-08T09:39:34.255Z,5.50
2018-05-08T09:40:34.517Z,5.60
2018-05-08T09:41:34.282Z,6.00
2018-05-08T09:42:34.296Z,5.40
2018-05-08T09:43:34.314Z,5.10
2018-05-08T09:44:34.324Z,5.30
2018-05-08T09:45:34.610Z,5.10
2018-05-08T09:46:34.855Z,4.70
2018-05-08T09:47:34.366Z,5.60
2018-05-08T09:48:34.380Z,5.10
2018-05-08T09:49:34.403Z,5.00
2018-05-08T09:50:34.406Z,4.90
2018-05-08T09:51:34.420Z,4.80
2018-05-08T09:52:34.435Z,5.10
2018-05-08T09:53:34.449Z,4.50
2018-05-08T09:54:34.492Z,5.00
2018-05-08T09:55:34.475Z,5.20
2018-05-08T09:56:34.490Z,5.20
2018-05-08T09:57:34.502Z,5.10
2018-05-08T09:58:34.831Z,4.80
2018-05-08T09:59:34.797Z,4.20
2018-05-08T10:00:34.811Z,4.70
2018-05-08T10:01:34.831Z,5.40
2018-05-08T10:02:34.570Z,4.50
2018-05-08T10:03:34.608Z,4.20
2018-05-08T10:04:34.597Z,4.30
2018-05-08T10:05:34.700Z,5.30
2018-05-08T10:06:34.723Z,5.10
2018-05-08T10:07:34.642Z,7.00
2018-05-08T10:08:34.654Z,5.10
2018-05-08T10:09:34.669Z,10.40
2018-05-08T10:10:34.680Z,5.90
2018-05-08T10:11:34.694Z,5.20
2018-05-08T10:12:34.708Z,5.70
2018-05-08T10:13:34.722Z,4.80
2018-05-08T10:14:34.738Z,4.50
2018-05-08T10:15:34.749Z,4.70
2018-05-08T10:16:34.768Z,4.80
2018-05-08T10:17:34.777Z,5.00
2018-05-08T10:18:34.790Z,4.50
2018-05-08T10:19:34.803Z,4.80
2018-05-08T10:20:34.873Z,4.20
2018-05-08T10:21:34.831Z,4.60
2018-05-08T10:22:34.845Z,4.70
2018-05-08T10:23:34.859Z,4.80
2018-05-08T10:24:34.872Z,5.10
2018-05-08T10:25:34.885Z,5.80
2018-05-08T10:26:34.899Z,4.60
2018-05-08T10:27:34.915Z,4.80
2018-05-08T10:28:34.927Z,5.50
2018-05-08T10:29:34.941Z,5.30
2018-05-08T10:30:34.955Z,5.70
2018-05-08T10:31:34.968Z,5.60
2018-05-08T10:32:34.981Z,5.40
2018-05-08T10:33:34.994Z,5.90
2018-05-08T10:34:35.008Z,5.70
2018-05-08T10:35:35.024Z,4.90
2018-05-08T10:36:35.035Z,4.80
2018-05-08T10:37:35.047Z,5.40
2018-05-08T10:38:35.060Z,5.40
2018-05-08T10:39:35.073Z,7.50
2018-05-08T10:40:35.157Z,6.40
2018-05-08T10:41:35.099Z,5.00
2018-05-08T10:42:35.111Z,7.20
2018-05-08T10:43:35.125Z,6.70
2018-05-08T10:44:35.137Z,5.00
2018-05-08T10:45:35.153Z,5.40
2018-05-08T10:46:35.162Z,4.80
2018-05-08T10:47:35.472Z,5.20
2018-05-08T10:48:35.482Z,5.90
2018-05-08T10:49:35.505Z,7.20
2018-05-08T10:50:35.481Z,5.40
2018-05-08T10:51:35.225Z,4.50
2018-05-08T10:52:35.240Z,3.80
2018-05-08T10:53:35.576Z,4.10
2018-05-08T10:54:35.495Z,4.80
2018-05-08T10:55:35.283Z,5.70
2018-05-08T10:56:35.288Z,4.20
2018-05-08T10:57:35.307Z,4.50
2018-05-08T10:58:35.355Z,5.00
2018-05-08T10:59:35.346Z,5.00
2018-05-08T11:00:35.339Z,4.30
2018-05-08T11:01:35.423Z,4.40
2018-05-08T11:02:35.376Z,4.20
2018-05-08T11:03:35.378Z,4.30
2018-05-08T11:04:35.449Z,4.50
2018-05-08T11:05:35.438Z,5.00
2018-05-08T11:06:35.414Z,5.40
2018-05-08T11:07:35.426Z,5.10
2018-05-08T11:08:35.439Z,4.80
2018-05-08T11:09:35.452Z,5.00
2018-05-08T11:10:35.468Z,4.40
2018-05-08T11:11:35.478Z,4.30
2018-05-08T11:12:35.496Z,3.60
2018-05-08T11:13:35.504Z,3.90
2018-05-08T11:14:35.516Z,4.00
2018-05-08T11:15:35.529Z,4.70
2018-05-08T11:16:35.553Z,4.70
2018-05-08T11:17:35.555Z,4.50
2018-05-08T11:18:35.566Z,3.90
2018-05-08T11:19:35.608Z,4.20
2018-05-08T11:20:35.590Z,3.80
2018-05-08T11:21:35.607Z,4.20
2018-05-08T11:22:36.240Z,4.40
2018-05-08T11:23:35.629Z,4.50
2018-05-08T11:24:35.642Z,4.20
2018-05-08T11:25:35.656Z,3.70
2018-05-08T11:26:35.713Z,4.10
2018-05-08T11:27:35.680Z,4.00
2018-05-08T11:28:35.694Z,3.90
2018-05-08T11:29:35.705Z,5.30
2018-05-08T11:30:35.720Z,4.50
2018-05-08T11:31:35.731Z,4.00
2018-05-08T11:32:35.744Z,4.10
2018-05-08T11:33:35.757Z,3.60
2018-05-08T11:34:35.771Z,4.20
2018-05-08T11:35:35.784Z,3.90
2018-05-08T11:36:35.797Z,4.20
2018-05-08T11:37:35.811Z,4.10
2018-05-08T11:38:35.823Z,3.70
2018-05-08T11:39:35.839Z,3.80
2018-05-08T11:40:35.847Z,3.80
2018-05-08T11:41:35.862Z,4.70
2018-05-08T11:42:35.874Z,4.20
2018-05-08T11:43:35.904Z,3.90
2018-05-08T11:44:35.930Z,4.20
2018-05-08T11:45:35.912Z,3.70
2018-05-08T11:46:35.924Z,3.60
2018-05-08T11:47:35.938Z,4.10
2018-05-08T11:48:35.954Z,3.70
2018-05-08T11:49:35.963Z,3.50
2018-05-08T11:50:35.977Z,4.30
2018-05-08T11:51:35.988Z,4.30
2018-05-08T11:52:35.997Z,4.10
2018-05-08T11:53:36.009Z,4.00
2018-05-08T11:54:36.025Z,3.40
2018-05-08T11:55:36.037Z,4.10
2018-05-08T11:56:36.046Z,4.20
2018-05-08T11:57:36.057Z,3.80
2018-05-08T11:58:36.069Z,3.60
2018-05-08T11:59:36.085Z,3.80
2018-05-08T12:00:36.095Z,3.90
2018-05-08T12:01:36.105Z,3.80
2018-05-08T12:02:36.181Z,3.70
2018-05-08T12:03:36.134Z,3.70
2018-05-08T12:04:36.142Z,3.70
2018-05-08T12:05:36.152Z,3.80
2018-05-08T12:06:36.165Z,3.50
2018-05-08T12:07:36.177Z,3.60
2018-05-08T12:08:36.190Z,3.80
2018-05-08T12:09:36.201Z,2.90
2018-05-08T12:10:36.213Z,3.80
2018-05-08T12:11:36.378Z,4.30
2018-05-08T12:12:36.240Z,3.20
2018-05-08T12:13:36.250Z,3.40
2018-05-08T12:14:36.292Z,3.50
2018-05-08T12:15:36.275Z,3.50
2018-05-08T12:16:36.287Z,3.10
2018-05-08T12:17:36.297Z,3.90
2018-05-08T12:18:36.311Z,3.80
2018-05-08T12:19:36.572Z,3.60
2018-05-08T12:20:36.335Z,3.50
2018-05-08T12:21:36.345Z,4.30
2018-05-08T12:22:36.357Z,3.40
2018-05-08T12:23:36.444Z,3.50
2018-05-08T12:24:36.382Z,3.50
2018-05-08T12:25:36.451Z,3.30
2018-05-08T12:26:36.404Z,3.00
2018-05-08T12:27:36.419Z,3.30
2018-05-08T12:28:36.428Z,3.70
2018-05-08T12:29:36.438Z,3.70
2018-05-08T12:30:36.496Z,3.10
2018-05-08T12:31:36.460Z,3.90
2018-05-08T12:32:36.472Z,3.40
2018-05-08T12:33:36.482Z,3.40
2018-05-08T12:34:36.895Z,3.30
2018-05-08T12:35:36.505Z,3.20
2018-05-08T12:36:36.516Z,3.10
2018-05-08T12:37:36.604Z,3.70
2018-05-08T12:38:36.541Z,2.90
2018-05-08T12:39:36.551Z,2.90
2018-05-08T12:40:36.564Z,3.30
2018-05-08T12:41:36.647Z,3.20
2018-05-08T12:42:36.584Z,3.50
2018-05-08T12:43:36.595Z,3.50
2018-05-08T12:44:36.611Z,3.20
2018-05-08T12:45:36.620Z,3.00
2018-05-08T12:46:36.631Z,3.40
2018-05-08T12:47:36.661Z,2.60
2018-05-08T12:48:36.651Z,3.20
2018-05-08T12:49:36.661Z,3.10
2018-05-08T12:50:36.676Z,2.90
2018-05-08T12:51:36.683Z,3.10
2018-05-08T12:52:36.694Z,3.30
2018-05-08T12:53:36.705Z,3.30
2018-05-08T12:54:36.717Z,2.50
2018-05-08T12:55:36.726Z,2.80
2018-05-08T12:56:36.739Z,3.00
2018-05-08T12:57:36.747Z,2.40
2018-05-08T12:58:36.908Z,2.60
2018-05-08T12:59:37.198Z,2.70
2018-05-08T13:00:36.921Z,2.70
2018-05-08T13:01:36.848Z,2.50
2018-05-08T13:02:36.803Z,2.40
2018-05-08T13:03:36.816Z,3.10
2018-05-08T13:04:36.826Z,2.40
2018-05-08T13:05:36.851Z,2.90
2018-05-08T13:06:36.847Z,2.40
2018-05-08T13:07:36.943Z,2.20
2018-05-08T13:08:37.157Z,3.10
2018-05-08T13:09:37.373Z,2.50
2018-05-08T13:10:36.888Z,2.20
2018-05-08T13:11:36.901Z,2.30
2018-05-08T13:12:36.910Z,2.80
2018-05-08T13:13:36.921Z,2.40
2018-05-08T13:14:37.370Z,2.00
2018-05-08T13:15:36.962Z,2.60
2018-05-08T13:16:36.950Z,2.30
2018-05-08T13:17:36.964Z,2.50
2018-05-08T13:18:36.970Z,2.00
2018-05-08T13:19:37.057Z,1.90